sensor_id;sensor_type;location;lat;lon;timestamp;P1;durP1;ratioP1;P2;durP2;ratioP2
1410;SDS011;700;51.906;8.404;2022-09-01T00:01:42;3.03;;;1.10;;
1410;SDS011;700;51.906;8.404;2022-09-01T00:06:48;3.03;;;1.40;;
1410;SDS011;700;51.906;8.404;2022-09-01T00:11:53;4.63;;;1.20;;
1410;SDS011;700;51.906;8.404;2022-09-01T00:17:03;3.10;;;1.23;;
1410;SDS011;700;51.906;8.404;2022-09-01T00:22:09;3.50;;;1.10;;
1410;SDS011;700;51.906;8.404;2022-09-01T00:27:09;3.03;;;1.30;;
1410;SDS011;700;51.906;8.404;2022-09-01T00:32:10;3.23;;;1.20;;
1410;SDS011;700;51.906;8.404;2022-09-01T00:37:11;2.27;;;1.00;;
1410;SDS011;700;51.906;8.404;2022-09-01T00:42:14;3.60;;;1.00;;
1410;SDS011;700;51.906;8.404;2022-09-01T00:47:20;2.93;;;1.20;;
1410;SDS011;700;51.906;8.404;2022-09-01T00:52:22;2.93;;;1.20;;
1410;SDS011;700;51.906;8.404;2022-09-01T00:57:42;2.33;;;1.20;;
1410;SDS011;700;51.906;8.404;2022-09-01T01:02:47;5.10;;;1.13;;
1410;SDS011;700;51.906;8.404;2022-09-01T01:07:54;3.97;;;1.50;;
1410;SDS011;700;51.906;8.404;2022-09-01T01:12:55;3.20;;;1.10;;
1410;SDS011;700;51.906;8.404;2022-09-01T01:17:56;4.07;;;1.77;;
1410;SDS011;700;51.906;8.404;2022-09-01T01:23:12;3.10;;;1.23;;
1410;SDS011;700;51.906;8.404;2022-09-01T01:28:22;3.10;;;1.43;;
1410;SDS011;700;51.906;8.404;2022-09-01T01:33:29;3.70;;;1.50;;
1410;SDS011;700;51.906;8.404;2022-09-01T01:38:42;3.47;;;1.20;;
1410;SDS011;700;51.906;8.404;2022-09-01T01:43:46;3.97;;;1.23;;
1410;SDS011;700;51.906;8.404;2022-09-01T01:48:47;2.80;;;1.70;;
1410;SDS011;700;51.906;8.404;2022-09-01T01:53:49;5.10;;;1.10;;
1410;SDS011;700;51.906;8.404;2022-09-01T01:58:52;3.53;;;1.10;;
1410;SDS011;700;51.906;8.404;2022-09-01T02:03:55;4.73;;;1.10;;
1410;SDS011;700;51.906;8.404;2022-09-01T02:09:00;2.00;;;1.10;;
1410;SDS011;700;51.906;8.404;2022-09-01T02:14:02;3.80;;;1.00;;
1410;SDS011;700;51.906;8.404;2022-09-01T02:19:05;3.47;;;1.20;;
1410;SDS011;700;51.906;8.404;2022-09-01T02:24:11;5.77;;;1.30;;
1410;SDS011;700;51.906;8.404;2022-09-01T02:29:14;4.50;;;1.20;;
1410;SDS011;700;51.906;8.404;2022-09-01T02:34:24;2.83;;;1.20;;
1410;SDS011;700;51.906;8.404;2022-09-01T02:39:28;3.50;;;1.00;;
1410;SDS011;700;51.906;8.404;2022-09-01T02:44:32;4.17;;;1.20;;
1410;SDS011;700;51.906;8.404;2022-09-01T02:49:36;3.67;;;1.50;;
1410;SDS011;700;51.906;8.404;2022-09-01T02:54:39;3.33;;;1.40;;
1410;SDS011;700;51.906;8.404;2022-09-01T02:59:44;3.83;;;1.30;;
1410;SDS011;700;51.906;8.404;2022-09-01T03:04:46;3.93;;;1.60;;
1410;SDS011;700;51.906;8.404;2022-09-01T03:09:53;2.70;;;1.13;;
1410;SDS011;700;51.906;8.404;2022-09-01T03:14:53;2.03;;;1.10;;
1410;SDS011;700;51.906;8.404;2022-09-01T03:19:54;2.60;;;1.20;;
1410;SDS011;700;51.906;8.404;2022-09-01T03:24:55;2.20;;;1.10;;
1410;SDS011;700;51.906;8.404;2022-09-01T03:29:56;3.87;;;1.30;;
1410;SDS011;700;51.906;8.404;2022-09-01T03:34:57;4.33;;;1.43;;
1410;SDS011;700;51.906;8.404;2022-09-01T03:39:58;2.57;;;1.27;;
1410;SDS011;700;51.906;8.404;2022-09-01T03:45:03;1.97;;;1.07;;
1410;SDS011;700;51.906;8.404;2022-09-01T03:50:10;2.17;;;1.20;;
1410;SDS011;700;51.906;8.404;2022-09-01T03:55:25;3.70;;;1.40;;
1410;SDS011;700;51.906;8.404;2022-09-01T04:00:30;4.70;;;1.27;;
1410;SDS011;700;51.906;8.404;2022-09-01T04:05:36;3.13;;;1.27;;
1410;SDS011;700;51.906;8.404;2022-09-01T04:10:45;3.07;;;1.30;;
1410;SDS011;700;51.906;8.404;2022-09-01T04:15:49;2.87;;;1.33;;
1410;SDS011;700;51.906;8.404;2022-09-01T04:20:53;2.77;;;1.27;;
1410;SDS011;700;51.906;8.404;2022-09-01T04:25:57;3.03;;;1.30;;
1410;SDS011;700;51.906;8.404;2022-09-01T04:31:08;2.83;;;1.73;;
1410;SDS011;700;51.906;8.404;2022-09-01T04:41:21;2.40;;;1.30;;
1410;SDS011;700;51.906;8.404;2022-09-01T04:46:33;3.27;;;1.47;;
1410;SDS011;700;51.906;8.404;2022-09-01T04:51:41;4.57;;;1.53;;
1410;SDS011;700;51.906;8.404;2022-09-01T04:56:44;3.10;;;1.63;;
1410;SDS011;700;51.906;8.404;2022-09-01T05:01:51;3.38;;;2.00;;
1410;SDS011;700;51.906;8.404;2022-09-01T05:06:57;5.67;;;2.60;;
1410;SDS011;700;51.906;8.404;2022-09-01T05:12:01;6.97;;;3.43;;
1410;SDS011;700;51.906;8.404;2022-09-01T05:17:10;6.57;;;3.03;;
1410;SDS011;700;51.906;8.404;2022-09-01T05:22:12;6.60;;;2.30;;
1410;SDS011;700;51.906;8.404;2022-09-01T05:27:21;5.77;;;2.47;;
1410;SDS011;700;51.906;8.404;2022-09-01T05:32:21;4.87;;;2.73;;
1410;SDS011;700;51.906;8.404;2022-09-01T05:37:24;6.90;;;2.47;;
1410;SDS011;700;51.906;8.404;2022-09-01T05:42:27;5.83;;;2.47;;
1410;SDS011;700;51.906;8.404;2022-09-01T05:47:29;4.75;;;2.42;;
1410;SDS011;700;51.906;8.404;2022-09-01T05:52:33;7.30;;;2.47;;
1410;SDS011;700;51.906;8.404;2022-09-01T05:57:36;5.70;;;2.07;;
1410;SDS011;700;51.906;8.404;2022-09-01T06:02:39;6.00;;;2.17;;
1410;SDS011;700;51.906;8.404;2022-09-01T06:07:41;4.47;;;2.30;;
1410;SDS011;700;51.906;8.404;2022-09-01T06:12:43;3.93;;;2.00;;
1410;SDS011;700;51.906;8.404;2022-09-01T06:17:46;5.17;;;1.90;;
1410;SDS011;700;51.906;8.404;2022-09-01T06:22:48;5.43;;;2.33;;
1410;SDS011;700;51.906;8.404;2022-09-01T06:27:48;5.47;;;2.43;;
1410;SDS011;700;51.906;8.404;2022-09-01T06:32:53;7.00;;;1.80;;
1410;SDS011;700;51.906;8.404;2022-09-01T06:37:56;4.20;;;1.67;;
1410;SDS011;700;51.906;8.404;2022-09-01T06:43:00;4.23;;;1.60;;
1410;SDS011;700;51.906;8.404;2022-09-01T06:48:07;3.00;;;1.30;;
1410;SDS011;700;51.906;8.404;2022-09-01T06:53:08;3.37;;;1.77;;
1410;SDS011;700;51.906;8.404;2022-09-01T06:58:14;6.57;;;1.93;;
1410;SDS011;700;51.906;8.404;2022-09-01T07:03:17;3.00;;;1.70;;
1410;SDS011;700;51.906;8.404;2022-09-01T07:08:21;3.33;;;1.40;;
1410;SDS011;700;51.906;8.404;2022-09-01T07:13:22;3.93;;;1.70;;
1410;SDS011;700;51.906;8.404;2022-09-01T07:18:24;2.97;;;1.30;;
1410;SDS011;700;51.906;8.404;2022-09-01T07:23:26;5.13;;;1.77;;
1410;SDS011;700;51.906;8.404;2022-09-01T07:28:28;2.83;;;1.40;;
1410;SDS011;700;51.906;8.404;2022-09-01T07:33:31;6.17;;;2.90;;
1410;SDS011;700;51.906;8.404;2022-09-01T07:38:32;3.00;;;1.37;;
1410;SDS011;700;51.906;8.404;2022-09-01T07:43:33;2.83;;;1.47;;
1410;SDS011;700;51.906;8.404;2022-09-01T07:48:34;2.13;;;1.17;;
1410;SDS011;700;51.906;8.404;2022-09-01T07:53:37;6.27;;;1.33;;
1410;SDS011;700;51.906;8.404;2022-09-01T07:58:38;3.83;;;1.53;;
1410;SDS011;700;51.906;8.404;2022-09-01T08:03:40;4.27;;;1.23;;
1410;SDS011;700;51.906;8.404;2022-09-01T08:08:43;3.27;;;1.50;;
1410;SDS011;700;51.906;8.404;2022-09-01T08:13:47;4.27;;;1.40;;
1410;SDS011;700;51.906;8.404;2022-09-01T08:18:51;3.27;;;1.33;;
1410;SDS011;700;51.906;8.404;2022-09-01T08:23:53;4.80;;;2.90;;
1410;SDS011;700;51.906;8.404;2022-09-01T08:28:54;6.43;;;1.40;;
1410;SDS011;700;51.906;8.404;2022-09-01T08:33:55;5.60;;;1.27;;
1410;SDS011;700;51.906;8.404;2022-09-01T08:39:04;2.20;;;1.10;;
1410;SDS011;700;51.906;8.404;2022-09-01T08:49:20;3.70;;;1.20;;
1410;SDS011;700;51.906;8.404;2022-09-01T08:54:27;4.23;;;1.23;;
1410;SDS011;700;51.906;8.404;2022-09-01T08:59:41;6.15;;;1.30;;
1410;SDS011;700;51.906;8.404;2022-09-01T09:16:14;2.83;;;1.10;;
1410;SDS011;700;51.906;8.404;2022-09-01T09:26:30;3.00;;;1.27;;
1410;SDS011;700;51.906;8.404;2022-09-01T09:31:34;2.03;;;1.07;;
1410;SDS011;700;51.906;8.404;2022-09-01T09:36:36;2.63;;;1.57;;
1410;SDS011;700;51.906;8.404;2022-09-01T09:41:41;3.77;;;1.20;;
1410;SDS011;700;51.906;8.404;2022-09-01T09:46:45;3.47;;;1.40;;
1410;SDS011;700;51.906;8.404;2022-09-01T09:51:52;2.03;;;1.27;;
1410;SDS011;700;51.906;8.404;2022-09-01T10:02:28;4.43;;;1.27;;
1410;SDS011;700;51.906;8.404;2022-09-01T10:07:38;2.77;;;1.20;;
1410;SDS011;700;51.906;8.404;2022-09-01T10:12:38;4.57;;;1.33;;
1410;SDS011;700;51.906;8.404;2022-09-01T10:17:42;3.30;;;1.38;;
1410;SDS011;700;51.906;8.404;2022-09-01T10:22:44;4.30;;;1.20;;
1410;SDS011;700;51.906;8.404;2022-09-01T10:27:49;2.60;;;1.13;;
1410;SDS011;700;51.906;8.404;2022-09-01T10:32:57;3.80;;;1.10;;
1410;SDS011;700;51.906;8.404;2022-09-01T10:38:03;3.93;;;1.20;;
1410;SDS011;700;51.906;8.404;2022-09-01T10:48:28;3.70;;;1.47;;
1410;SDS011;700;51.906;8.404;2022-09-01T11:09:02;2.50;;;1.30;;
1410;SDS011;700;51.906;8.404;2022-09-01T11:14:15;3.00;;;1.40;;
1410;SDS011;700;51.906;8.404;2022-09-01T11:29:55;3.70;;;1.33;;
1410;SDS011;700;51.906;8.404;2022-09-01T11:34:57;5.00;;;1.30;;
1410;SDS011;700;51.906;8.404;2022-09-01T11:40:03;3.50;;;0.93;;
1410;SDS011;700;51.906;8.404;2022-09-01T11:45:17;3.10;;;1.00;;
1410;SDS011;700;51.906;8.404;2022-09-01T11:50:40;3.67;;;1.30;;
1410;SDS011;700;51.906;8.404;2022-09-01T11:55:44;2.40;;;1.30;;
1410;SDS011;700;51.906;8.404;2022-09-01T12:00:48;2.13;;;1.20;;
1410;SDS011;700;51.906;8.404;2022-09-01T12:06:06;6.53;;;1.20;;
1410;SDS011;700;51.906;8.404;2022-09-01T12:11:09;5.40;;;1.20;;
1410;SDS011;700;51.906;8.404;2022-09-01T12:16:19;1.90;;;1.10;;
1410;SDS011;700;51.906;8.404;2022-09-01T12:26:24;4.50;;;1.30;;
1410;SDS011;700;51.906;8.404;2022-09-01T12:31:28;2.43;;;1.17;;
1410;SDS011;700;51.906;8.404;2022-09-01T12:36:33;4.40;;;1.30;;
1410;SDS011;700;51.906;8.404;2022-09-01T12:41:36;6.33;;;1.50;;
1410;SDS011;700;51.906;8.404;2022-09-01T12:46:42;3.00;;;1.30;;
1410;SDS011;700;51.906;8.404;2022-09-01T12:51:45;4.63;;;1.27;;
1410;SDS011;700;51.906;8.404;2022-09-01T13:02:37;2.87;;;1.40;;
1410;SDS011;700;51.906;8.404;2022-09-01T13:07:40;2.17;;;1.07;;
1410;SDS011;700;51.906;8.404;2022-09-01T13:12:41;2.90;;;1.50;;
1410;SDS011;700;51.906;8.404;2022-09-01T13:17:45;5.03;;;1.10;;
1410;SDS011;700;51.906;8.404;2022-09-01T13:22:46;2.47;;;1.23;;
1410;SDS011;700;51.906;8.404;2022-09-01T13:27:47;2.87;;;1.10;;
1410;SDS011;700;51.906;8.404;2022-09-01T13:32:48;1.87;;;1.17;;
1410;SDS011;700;51.906;8.404;2022-09-01T13:37:49;2.37;;;1.07;;
1410;SDS011;700;51.906;8.404;2022-09-01T13:42:54;7.50;;;1.90;;
1410;SDS011;700;51.906;8.404;2022-09-01T13:47:54;2.80;;;1.10;;
1410;SDS011;700;51.906;8.404;2022-09-01T13:53:00;2.73;;;1.30;;
1410;SDS011;700;51.906;8.404;2022-09-01T13:58:01;2.43;;;1.20;;
1410;SDS011;700;51.906;8.404;2022-09-01T14:03:05;2.53;;;1.20;;
1410;SDS011;700;51.906;8.404;2022-09-01T14:08:12;2.37;;;1.10;;
1410;SDS011;700;51.906;8.404;2022-09-01T14:13:18;4.00;;;1.30;;
1410;SDS011;700;51.906;8.404;2022-09-01T14:18:20;3.03;;;1.23;;
1410;SDS011;700;51.906;8.404;2022-09-01T14:23:37;2.00;;;1.00;;
1410;SDS011;700;51.906;8.404;2022-09-01T14:28:41;2.20;;;1.10;;
1410;SDS011;700;51.906;8.404;2022-09-01T14:33:44;2.50;;;1.20;;
1410;SDS011;700;51.906;8.404;2022-09-01T14:38:45;3.10;;;1.00;;
1410;SDS011;700;51.906;8.404;2022-09-01T14:43:51;2.00;;;0.83;;
1410;SDS011;700;51.906;8.404;2022-09-01T14:48:56;4.03;;;1.20;;
1410;SDS011;700;51.906;8.404;2022-09-01T14:53:57;2.20;;;1.20;;
1410;SDS011;700;51.906;8.404;2022-09-01T14:58:58;2.97;;;1.20;;
1410;SDS011;700;51.906;8.404;2022-09-01T15:03:59;2.67;;;0.90;;
1410;SDS011;700;51.906;8.404;2022-09-01T15:09:00;2.30;;;1.40;;
1410;SDS011;700;51.906;8.404;2022-09-01T15:14:04;2.70;;;1.27;;
1410;SDS011;700;51.906;8.404;2022-09-01T15:19:11;2.50;;;1.20;;
1410;SDS011;700;51.906;8.404;2022-09-01T15:24:12;1.77;;;1.00;;
1410;SDS011;700;51.906;8.404;2022-09-01T15:29:13;3.17;;;1.27;;
1410;SDS011;700;51.906;8.404;2022-09-01T15:34:14;3.37;;;1.43;;
1410;SDS011;700;51.906;8.404;2022-09-01T15:39:17;2.87;;;1.40;;
1410;SDS011;700;51.906;8.404;2022-09-01T15:44:18;2.00;;;1.03;;
1410;SDS011;700;51.906;8.404;2022-09-01T15:49:21;5.33;;;2.30;;
1410;SDS011;700;51.906;8.404;2022-09-01T15:54:24;2.80;;;1.10;;
1410;SDS011;700;51.906;8.404;2022-09-01T15:59:26;5.37;;;1.00;;
1410;SDS011;700;51.906;8.404;2022-09-01T16:04:31;5.47;;;1.80;;
1410;SDS011;700;51.906;8.404;2022-09-01T16:09:32;2.70;;;1.40;;
1410;SDS011;700;51.906;8.404;2022-09-01T16:14:35;3.53;;;1.13;;
1410;SDS011;700;51.906;8.404;2022-09-01T16:24:58;3.37;;;1.30;;
1410;SDS011;700;51.906;8.404;2022-09-01T16:30:01;3.90;;;1.10;;
1410;SDS011;700;51.906;8.404;2022-09-01T16:35:10;3.70;;;1.00;;
1410;SDS011;700;51.906;8.404;2022-09-01T16:45:33;3.77;;;1.10;;
1410;SDS011;700;51.906;8.404;2022-09-01T16:51:02;3.80;;;1.50;;
1410;SDS011;700;51.906;8.404;2022-09-01T17:02:11;2.30;;;1.20;;
1410;SDS011;700;51.906;8.404;2022-09-01T17:07:39;3.47;;;1.30;;
1410;SDS011;700;51.906;8.404;2022-09-01T17:13:11;11.30;;;2.30;;
1410;SDS011;700;51.906;8.404;2022-09-01T17:23:40;3.50;;;1.20;;
1410;SDS011;700;51.906;8.404;2022-09-01T17:28:59;4.13;;;1.00;;
1410;SDS011;700;51.906;8.404;2022-09-01T17:39:19;3.73;;;1.47;;
1410;SDS011;700;51.906;8.404;2022-09-01T18:05:24;3.00;;;1.13;;
1410;SDS011;700;51.906;8.404;2022-09-01T18:10:27;4.10;;;1.17;;
1410;SDS011;700;51.906;8.404;2022-09-01T18:15:43;1.87;;;0.90;;
1410;SDS011;700;51.906;8.404;2022-09-01T18:20:48;2.80;;;1.10;;
1410;SDS011;700;51.906;8.404;2022-09-01T18:25:58;4.30;;;0.93;;
1410;SDS011;700;51.906;8.404;2022-09-01T18:31:21;2.73;;;1.00;;
1410;SDS011;700;51.906;8.404;2022-09-01T18:47:00;2.57;;;1.00;;
1410;SDS011;700;51.906;8.404;2022-09-01T18:53:12;3.30;;;1.13;;
1410;SDS011;700;51.906;8.404;2022-09-01T18:57:50;2.80;;;1.37;;
1410;SDS011;700;51.906;8.404;2022-09-01T19:24:39;4.70;;;1.00;;
1410;SDS011;700;51.906;8.404;2022-09-01T19:29:48;4.03;;;1.20;;
1410;SDS011;700;51.906;8.404;2022-09-01T19:34:55;3.50;;;1.07;;
1410;SDS011;700;51.906;8.404;2022-09-01T19:39:57;2.33;;;1.23;;
1410;SDS011;700;51.906;8.404;2022-09-01T19:45:06;3.17;;;0.90;;
1410;SDS011;700;51.906;8.404;2022-09-01T19:50:12;2.60;;;0.90;;
1410;SDS011;700;51.906;8.404;2022-09-01T19:55:20;2.23;;;1.17;;
1410;SDS011;700;51.906;8.404;2022-09-01T20:05:56;2.63;;;1.60;;
1410;SDS011;700;51.906;8.404;2022-09-01T20:21:46;5.90;;;1.33;;
1410;SDS011;700;51.906;8.404;2022-09-01T20:27:01;3.47;;;0.90;;
1410;SDS011;700;51.906;8.404;2022-09-01T20:32:05;2.93;;;1.00;;
1410;SDS011;700;51.906;8.404;2022-09-01T20:48:05;5.20;;;1.10;;
1410;SDS011;700;51.906;8.404;2022-09-01T20:58:45;2.43;;;0.90;;
1410;SDS011;700;51.906;8.404;2022-09-01T21:04:00;3.13;;;0.80;;
1410;SDS011;700;51.906;8.404;2022-09-01T21:24:53;2.00;;;0.83;;
1410;SDS011;700;51.906;8.404;2022-09-01T21:35:04;2.47;;;0.87;;
1410;SDS011;700;51.906;8.404;2022-09-01T21:40:10;2.10;;;0.90;;
1410;SDS011;700;51.906;8.404;2022-09-01T21:45:14;2.30;;;1.17;;
1410;SDS011;700;51.906;8.404;2022-09-01T21:50:17;4.80;;;1.30;;
1410;SDS011;700;51.906;8.404;2022-09-01T21:55:20;6.00;;;1.70;;
1410;SDS011;700;51.906;8.404;2022-09-01T22:00:26;2.40;;;0.90;;
1410;SDS011;700;51.906;8.404;2022-09-01T22:05:28;1.80;;;0.80;;
1410;SDS011;700;51.906;8.404;2022-09-01T22:10:30;2.17;;;0.80;;
1410;SDS011;700;51.906;8.404;2022-09-01T22:15:30;2.47;;;1.10;;
1410;SDS011;700;51.906;8.404;2022-09-01T22:20:31;3.57;;;1.10;;
1410;SDS011;700;51.906;8.404;2022-09-01T22:25:34;2.80;;;0.77;;
1410;SDS011;700;51.906;8.404;2022-09-01T22:30:43;2.27;;;0.80;;
1410;SDS011;700;51.906;8.404;2022-09-01T22:35:49;5.50;;;1.13;;
1410;SDS011;700;51.906;8.404;2022-09-01T22:40:55;1.90;;;0.80;;
1410;SDS011;700;51.906;8.404;2022-09-01T22:45:58;4.30;;;0.83;;
1410;SDS011;700;51.906;8.404;2022-09-01T22:51:02;3.20;;;1.73;;
1410;SDS011;700;51.906;8.404;2022-09-01T22:56:11;2.60;;;0.90;;
1410;SDS011;700;51.906;8.404;2022-09-01T23:01:14;7.07;;;1.30;;
1410;SDS011;700;51.906;8.404;2022-09-01T23:06:20;2.77;;;0.90;;
1410;SDS011;700;51.906;8.404;2022-09-01T23:11:22;2.17;;;1.03;;
1410;SDS011;700;51.906;8.404;2022-09-01T23:16:25;2.13;;;0.80;;
1410;SDS011;700;51.906;8.404;2022-09-01T23:21:27;2.00;;;0.90;;
1410;SDS011;700;51.906;8.404;2022-09-01T23:26:33;3.33;;;1.00;;
1410;SDS011;700;51.906;8.404;2022-09-01T23:31:35;2.37;;;1.00;;
1410;SDS011;700;51.906;8.404;2022-09-01T23:36:37;2.87;;;1.00;;
1410;SDS011;700;51.906;8.404;2022-09-01T23:41:39;5.23;;;1.20;;
1410;SDS011;700;51.906;8.404;2022-09-01T23:46:41;1.70;;;0.80;;
1410;SDS011;700;51.906;8.404;2022-09-01T23:51:46;6.00;;;1.10;;
1410;SDS011;700;51.906;8.404;2022-09-01T23:56:49;3.90;;;1.30;;
